Maersk Leon — 9V9778 — position and weather

sailwx.info

Track history (hours):
 
Tides and Currents Weather Stations Pressure Air Temp Water Temp Dewpoint Dewpoint Depression Visibility Wind Speed Wind Dir Waves Ship Positions

Maersk Leon

Last reported at 2017-Oct-19 09:00 UTC. Time now 2017-Oct-19 13:04 UTC.
Position S 33°48' E 025°42'.

Length 300 m; draft 10.8 m.

Type: Ship (hazmat cat A). MMSI: 566405000.

Wind from 260 at 34 knots

Barometer 1012.9 mb
Air temperature 20.0 ° C
Visibility: greater than 10.8 NM
Dewpoint 16.7 ° C
Water temperature 19.0 ° C

Date/timePositionNaut miles runAvg speedWind from/ knotsBaromVisibWave heightAir tempDewpointWater temp
2017-Oct-19 09:00S 33°48' E 025°42'19 0.5 260 / 341012.910.8 20.016.719.0
2017-Oct-17 20:00S 34°06' E 025°48'40 3.3 270 / 341018.0 5.4 15.011.318.0
2017-Oct-17 08:00S 34°12' E 025°00'33514.8 290 / 351015.0 5.4 15.013.220.0
2017-Oct-16 09:25S 33°56' E 018°16'513.1
2017-Oct-16 09:00S 33°52' E 018°20'5 9.9
2017-Oct-16 08:30S 33°53' E 018°26'2 3.9
2017-Oct-16 08:00S 33°55' E 018°27'0 0.1
2017-Oct-16 07:19S 33°55' E 018°27'0 0.0
2017-Oct-16 06:58S 33°55' E 018°27'0 0.0
2017-Oct-16 06:28S 33°55' E 018°27'0 0.0
2017-Oct-16 05:58S 33°55' E 018°27'0 0.1
2017-Oct-16 05:28S 33°55' E 018°27'0 0.1
2017-Oct-16 04:58S 33°55' E 018°27'0 0.0
2017-Oct-16 04:28S 33°55' E 018°27'0 0.0
2017-Oct-16 03:55S 33°55' E 018°27'0 0.0
2017-Oct-16 03:28S 33°55' E 018°27'0 0.0
2017-Oct-16 02:58S 33°55' E 018°27'0 0.0
2017-Oct-16 02:28S 33°55' E 018°27'0 0.0
2017-Oct-16 01:58S 33°55' E 018°27'0 0.0
2017-Oct-16 01:28S 33°55' E 018°27'0 0.0
2017-Oct-16 00:49S 33°55' E 018°27'0 0.0
2017-Oct-16 00:28S 33°55' E 018°27'0 0.0
2017-Oct-15 23:58S 33°55' E 018°27'0 0.0
2017-Oct-15 23:28S 33°55' E 018°27'0 0.0
2017-Oct-15 22:59S 33°55' E 018°27'0 0.0
2017-Oct-15 22:28S 33°55' E 018°27'0 0.0
2017-Oct-15 21:58S 33°55' E 018°27'0 0.0
2017-Oct-15 21:28S 33°55' E 018°27'0 0.0
2017-Oct-15 20:58S 33°55' E 018°27'0 0.0
2017-Oct-15 20:28S 33°55' E 018°27'0 0.0
2017-Oct-15 19:55S 33°55' E 018°27'0 0.0
2017-Oct-15 19:28S 33°55' E 018°27'0 0.0
2017-Oct-15 18:56S 33°55' E 018°27'0 0.0
2017-Oct-15 18:28S 33°55' E 018°27'0 0.0
2017-Oct-15 17:52S 33°55' E 018°27'0 0.0
2017-Oct-15 17:28S 33°55' E 018°27'0 0.0
2017-Oct-15 16:58S 33°55' E 018°27'0 0.0
2017-Oct-15 16:28S 33°55' E 018°27'0 0.0
2017-Oct-15 15:55S 33°55' E 018°27'0 0.4
2017-Oct-15 15:30S 33°55' E 018°27'2 4.8
2017-Oct-15 15:00S 33°53' E 018°25'7 7.4
2017-Oct-15 14:00S 33°51' E 018°16'510.3
2017-Oct-15 13:30S 33°49' E 018°11'4 9.0
2017-Oct-15 13:00S 33°52' E 018°06'5 3.9
2017-Oct-15 11:39S 33°53' E 018°13'1 3.2
2017-Oct-15 11:14S 33°54' E 018°14'0 1.6
2017-Oct-15 10:58S 33°54' E 018°15'1 1.7
2017-Oct-15 10:30S 33°53' E 018°14'1 1.9
2017-Oct-15 10:00S 33°53' E 018°13'1 2.0
2017-Oct-15 09:30S 33°53' E 018°12'1 1.3
2017-Oct-15 09:00S 33°53' E 018°11'61174.3
2017-Oct-15 09:00S 33°48' E 018°06'5 9.3 330 / 171016.3 5.4 14.512.717.0
2017-Oct-15 08:24S 33°52' E 018°11'1 1.5
2017-Oct-15 08:00S 33°51' E 018°10'1 2.4
2017-Oct-15 07:30S 33°51' E 018°12'4 7.0
2017-Oct-15 07:00S 33°48' E 018°14'611.4
2017-Oct-15 06:29S 33°44' E 018°10'510.0
2017-Oct-15 06:00S 33°41' E 018°05'9 1.0
2017-Oct-14 21:00S 33°42' E 017°54'16811.2 1015.2 5.4 15.011.318.0
2017-Oct-14 06:00S 31°24' E 016°00'12320.6 260 / 171014.4 5.4 16.010.320.0
2017-Oct-14 00:00S 29°48' E 014°30'12120.1 210 / 201018.4 5.4 14.0 16.0
2017-Oct-13 18:00S 28°12' E 013°06'21519.5 200 / 181015.4 5.4 16.012.420.0
2017-Oct-13 07:00S 25°24' E 010°36'22520.4 160 / 181017.6 5.4 23.0 5.119.0
2017-Oct-12 20:00S 22°30' E 008°00'16620.7 150 / 171018.3 5.4 17.011.518.0
2017-Oct-12 12:00S 20°18' E 006°12'12120.2 120 / 251015.9 5.4 22.0 24.0
2017-Oct-12 06:00S 18°42' E 004°54'12120.2 160 / 181017.3 5.4 17.510.021.0
2017-Oct-12 00:00S 17°06' E 003°36'12220.3 160 / 171013.7 5.4 24.0 26.0
2017-Oct-11 18:00S 15°30' E 002°18'12220.3 160 / 181015.4 5.4 18.011.622.0
2017-Oct-11 12:00S 13°54' E 001°00'11919.8 150 / 161015.8 5.4 26.0 27.0
2017-Oct-11 06:00S 12°18' W 000°12'24620.5 170 / 181015.6 5.4 18.513.224.0
2017-Oct-10 18:00S 09°06' W 002°48'12320.5 160 / 141013.5 5.4 22.020.526.0
2017-Oct-10 12:00S 07°30' W 004°06'10220.4 150 / 161013.0 5.4 28.0 30.0
2017-Oct-10 07:00S 06°12' W 005°12'14520.7 170 / 171013.710.8 24.023.327.0
2017-Oct-10 00:00S 04°18' W 006°42'8521.3 160 / 171012.9 5.4 28.0 30.0
2017-Oct-09 20:00S 03°12' W 007°36'17221.4 180 / 131012.8 5.4 24.024.027.0
2017-Oct-09 12:00S 00°54' W 009°18'   170 / 121018.1 5.4 30.0 31.0
Track history (hours):
 
Tides and Currents Weather Stations Pressure Air Temp Water Temp Dewpoint Dewpoint Depression Visibility Wind Speed Wind Dir Waves Ship Positions

Maersk Leon

Last reported at 2017-Oct-19 09:00 UTC. Time now 2017-Oct-19 13:04 UTC.
Position S 33°48' E 025°42'.

Length 300 m; draft 10.8 m.

Type: Ship (hazmat cat A). MMSI: 566405000.

Wind from 260 at 34 knots

Barometer 1012.9 mb
Air temperature 20.0 ° C
Visibility: greater than 10.8 NM
Dewpoint 16.7 ° C
Water temperature 19.0 ° C

Date/timePositionNaut miles runAvg speedWind from/ knotsBaromVisibWave heightAir tempDewpointWater temp
2017-Oct-19 09:00S 33°48' E 025°42'19 0.5 260 / 341012.910.8 20.016.719.0
2017-Oct-17 20:00S 34°06' E 025°48'40 3.3 270 / 341018.0 5.4 15.011.318.0
2017-Oct-17 08:00S 34°12' E 025°00'33514.8 290 / 351015.0 5.4 15.013.220.0
2017-Oct-16 09:25S 33°56' E 018°16'513.1
2017-Oct-16 09:00S 33°52' E 018°20'5 9.9
2017-Oct-16 08:30S 33°53' E 018°26'2 3.9
2017-Oct-16 08:00S 33°55' E 018°27'0 0.1
2017-Oct-16 07:19S 33°55' E 018°27'0 0.0
2017-Oct-16 06:58S 33°55' E 018°27'0 0.0
2017-Oct-16 06:28S 33°55' E 018°27'0 0.0
2017-Oct-16 05:58S 33°55' E 018°27'0 0.1
2017-Oct-16 05:28S 33°55' E 018°27'0 0.1
2017-Oct-16 04:58S 33°55' E 018°27'0 0.0
2017-Oct-16 04:28S 33°55' E 018°27'0 0.0
2017-Oct-16 03:55S 33°55' E 018°27'0 0.0
2017-Oct-16 03:28S 33°55' E 018°27'0 0.0
2017-Oct-16 02:58S 33°55' E 018°27'0 0.0
2017-Oct-16 02:28S 33°55' E 018°27'0 0.0
2017-Oct-16 01:58S 33°55' E 018°27'0 0.0
2017-Oct-16 01:28S 33°55' E 018°27'0 0.0
2017-Oct-16 00:49S 33°55' E 018°27'0 0.0
2017-Oct-16 00:28S 33°55' E 018°27'0 0.0
2017-Oct-15 23:58S 33°55' E 018°27'0 0.0
2017-Oct-15 23:28S 33°55' E 018°27'0 0.0
2017-Oct-15 22:59S 33°55' E 018°27'0 0.0
2017-Oct-15 22:28S 33°55' E 018°27'0 0.0
2017-Oct-15 21:58S 33°55' E 018°27'0 0.0
2017-Oct-15 21:28S 33°55' E 018°27'0 0.0
2017-Oct-15 20:58S 33°55' E 018°27'0 0.0
2017-Oct-15 20:28S 33°55' E 018°27'0 0.0
2017-Oct-15 19:55S 33°55' E 018°27'0 0.0
2017-Oct-15 19:28S 33°55' E 018°27'0 0.0
2017-Oct-15 18:56S 33°55' E 018°27'0 0.0
2017-Oct-15 18:28S 33°55' E 018°27'0 0.0
2017-Oct-15 17:52S 33°55' E 018°27'0 0.0
2017-Oct-15 17:28S 33°55' E 018°27'0 0.0
2017-Oct-15 16:58S 33°55' E 018°27'0 0.0
2017-Oct-15 16:28S 33°55' E 018°27'0 0.0
2017-Oct-15 15:55S 33°55' E 018°27'0 0.4
2017-Oct-15 15:30S 33°55' E 018°27'2 4.8
2017-Oct-15 15:00S 33°53' E 018°25'7 7.4
2017-Oct-15 14:00S 33°51' E 018°16'510.3
2017-Oct-15 13:30S 33°49' E 018°11'4 9.0
2017-Oct-15 13:00S 33°52' E 018°06'5 3.9
2017-Oct-15 11:39S 33°53' E 018°13'1 3.2
2017-Oct-15 11:14S 33°54' E 018°14'0 1.6
2017-Oct-15 10:58S 33°54' E 018°15'1 1.7
2017-Oct-15 10:30S 33°53' E 018°14'1 1.9
2017-Oct-15 10:00S 33°53' E 018°13'1 2.0
2017-Oct-15 09:30S 33°53' E 018°12'1 1.3
2017-Oct-15 09:00S 33°53' E 018°11'61174.3
2017-Oct-15 09:00S 33°48' E 018°06'5 9.3 330 / 171016.3 5.4 14.512.717.0
2017-Oct-15 08:24S 33°52' E 018°11'1 1.5
2017-Oct-15 08:00S 33°51' E 018°10'1 2.4
2017-Oct-15 07:30S 33°51' E 018°12'4 7.0
2017-Oct-15 07:00S 33°48' E 018°14'611.4
2017-Oct-15 06:29S 33°44' E 018°10'510.0
2017-Oct-15 06:00S 33°41' E 018°05'9 1.0
2017-Oct-14 21:00S 33°42' E 017°54'16811.2 1015.2 5.4 15.011.318.0
2017-Oct-14 06:00S 31°24' E 016°00'12320.6 260 / 171014.4 5.4 16.010.320.0
2017-Oct-14 00:00S 29°48' E 014°30'12120.1 210 / 201018.4 5.4 14.0 16.0
2017-Oct-13 18:00S 28°12' E 013°06'21519.5 200 / 181015.4 5.4 16.012.420.0
2017-Oct-13 07:00S 25°24' E 010°36'22520.4 160 / 181017.6 5.4 23.0 5.119.0
2017-Oct-12 20:00S 22°30' E 008°00'16620.7 150 / 171018.3 5.4 17.011.518.0
2017-Oct-12 12:00S 20°18' E 006°12'12120.2 120 / 251015.9 5.4 22.0 24.0
2017-Oct-12 06:00S 18°42' E 004°54'12120.2 160 / 181017.3 5.4 17.510.021.0
2017-Oct-12 00:00S 17°06' E 003°36'12220.3 160 / 171013.7 5.4 24.0 26.0
2017-Oct-11 18:00S 15°30' E 002°18'12220.3 160 / 181015.4 5.4 18.011.622.0
2017-Oct-11 12:00S 13°54' E 001°00'11919.8 150 / 161015.8 5.4 26.0 27.0
2017-Oct-11 06:00S 12°18' W 000°12'24620.5 170 / 181015.6 5.4 18.513.224.0
2017-Oct-10 18:00S 09°06' W 002°48'12320.5 160 / 141013.5 5.4 22.020.526.0
2017-Oct-10 12:00S 07°30' W 004°06'10220.4 150 / 161013.0 5.4 28.0 30.0
2017-Oct-10 07:00S 06°12' W 005°12'14520.7 170 / 171013.710.8 24.023.327.0
2017-Oct-10 00:00S 04°18' W 006°42'8521.3 160 / 171012.9 5.4 28.0 30.0
2017-Oct-09 20:00S 03°12' W 007°36'17221.4 180 / 131012.8 5.4 24.024.027.0
2017-Oct-09 12:00S 00°54' W 009°18'   170 / 121018.1 5.4 30.0 31.0

Dump ship's entire track history